createdAt,value
2023-09-20T00:02:19.163Z,100.00
2023-09-20T00:04:49.508Z,100.00
2023-09-20T00:07:17.960Z,100.00
2023-09-20T00:09:46.042Z,100.00
2023-09-20T00:12:14.020Z,100.00
2023-09-20T00:14:42.054Z,100.00
2023-09-20T00:17:10.105Z,100.00
2023-09-20T00:19:41.163Z,100.00
2023-09-20T00:22:12.205Z,100.00
2023-09-20T00:24:40.638Z,100.00
2023-09-20T00:27:09.734Z,100.00
2023-09-20T00:29:39.157Z,100.00
2023-09-20T00:32:08.649Z,100.00
2023-09-20T00:34:36.980Z,100.00
2023-09-20T00:37:05.330Z,100.00
2023-09-20T00:39:33.320Z,100.00
2023-09-20T00:42:01.299Z,100.00
2023-09-20T00:44:30.128Z,100.00
2023-09-20T00:46:58.238Z,100.00
2023-09-20T00:49:26.422Z,100.00
2023-09-20T00:51:55.120Z,100.00
2023-09-20T00:54:24.232Z,100.00
2023-09-20T00:56:52.522Z,100.00
2023-09-20T00:59:23.177Z,100.00
2023-09-20T01:01:51.530Z,100.00
2023-09-20T01:04:20.062Z,100.00
2023-09-20T01:06:51.682Z,100.00
2023-09-20T01:09:19.905Z,100.00
2023-09-20T01:11:47.976Z,100.00
2023-09-20T01:14:15.989Z,100.00
2023-09-20T01:16:43.993Z,100.00
2023-09-20T01:19:12.040Z,100.00
2023-09-20T01:21:48.052Z,100.00
2023-09-20T01:24:18.605Z,100.00
2023-09-20T01:26:49.593Z,100.00
2023-09-20T01:29:18.633Z,100.00
2023-09-20T01:31:48.482Z,100.00
2023-09-20T01:34:16.575Z,100.00
2023-09-20T01:36:44.649Z,100.00
2023-09-20T01:39:13.488Z,100.00
2023-09-20T01:41:41.816Z,100.00
2023-09-20T01:44:10.088Z,100.00
2023-09-20T01:46:38.395Z,100.00
2023-09-20T01:49:06.908Z,100.00
2023-09-20T01:51:35.393Z,100.00
2023-09-20T01:54:05.111Z,100.00
2023-09-20T01:56:33.349Z,100.00
2023-09-20T01:59:01.555Z,100.00
2023-09-20T02:01:30.502Z,100.00
2023-09-20T02:03:58.515Z,100.00
2023-09-20T02:06:27.362Z,100.00
2023-09-20T02:08:55.353Z,100.00
2023-09-20T02:11:23.440Z,100.00
2023-09-20T02:13:51.689Z,100.00
2023-09-20T02:16:19.818Z,100.00
2023-09-20T02:18:49.532Z,100.00
2023-09-20T02:21:17.650Z,100.00
2023-09-20T02:23:46.039Z,100.00
2023-09-20T02:26:14.098Z,100.00
2023-09-20T02:28:42.354Z,100.00
2023-09-20T02:31:12.998Z,100.00
2023-09-20T02:33:41.084Z,100.00
2023-09-20T02:36:11.304Z,100.00
2023-09-20T02:38:39.495Z,100.00
2023-09-20T02:41:09.317Z,100.00
2023-09-20T02:43:37.715Z,100.00
2023-09-20T02:46:07.508Z,100.00
2023-09-20T02:48:35.826Z,100.00
2023-09-20T02:51:06.415Z,100.00
2023-09-20T02:53:37.110Z,100.00
2023-09-20T02:56:06.681Z,100.00
2023-09-20T02:58:38.282Z,100.00
2023-09-20T03:01:09.781Z,100.00
2023-09-20T03:03:38.676Z,100.00
2023-09-20T03:06:11.052Z,100.00
2023-09-20T03:08:45.869Z,100.00
2023-09-20T03:11:23.126Z,100.00
2023-09-20T03:13:51.731Z,100.00
2023-09-20T03:16:20.598Z,100.00
2023-09-20T03:18:51.628Z,100.00
2023-09-20T03:21:20.666Z,100.00
2023-09-20T03:23:49.403Z,100.00
2023-09-20T03:26:17.862Z,100.00
2023-09-20T03:28:47.910Z,100.00
2023-09-20T03:31:18.626Z,100.00
2023-09-20T03:33:48.296Z,100.00
2023-09-20T03:36:20.161Z,100.00
2023-09-20T03:38:49.775Z,100.00
2023-09-20T03:41:18.350Z,100.00
2023-09-20T03:43:47.076Z,100.00
2023-09-20T03:46:15.892Z,100.00
2023-09-20T03:48:44.814Z,100.00
2023-09-20T03:51:16.592Z,100.00
2023-09-20T03:53:44.826Z,100.00
2023-09-20T03:56:13.260Z,100.00
2023-09-20T03:58:41.641Z,100.00
2023-09-20T04:05:34.762Z,100.00
2023-09-20T04:08:07.805Z,100.00
2023-09-20T04:10:36.423Z,100.00
2023-09-20T04:13:05.210Z,100.00
2023-09-20T04:15:34.577Z,100.00
2023-09-20T04:18:09.953Z,100.00
2023-09-20T04:20:39.679Z,100.00
2023-09-20T04:23:11.285Z,100.00
2023-09-20T04:25:40.455Z,100.00
2023-09-20T04:28:10.356Z,100.00
2023-09-20T04:34:34.952Z,100.00
2023-09-20T04:37:03.826Z,100.00
2023-09-20T04:39:32.129Z,100.00
2023-09-20T04:42:00.514Z,100.00
2023-09-20T04:44:28.622Z,100.00
2023-09-20T04:46:59.021Z,100.00
2023-09-20T04:49:27.899Z,100.00
2023-09-20T04:52:01.690Z,100.00
2023-09-20T04:54:30.011Z,100.00
2023-09-20T04:56:57.959Z,100.00
2023-09-20T04:59:27.056Z,100.00
2023-09-20T05:01:56.271Z,100.00
2023-09-20T05:04:24.310Z,100.00
2023-09-20T05:06:54.332Z,100.00
2023-09-20T05:09:23.195Z,100.00
2023-09-20T05:11:51.696Z,100.00
2023-09-20T05:14:21.246Z,100.00
2023-09-20T05:16:50.271Z,100.00
2023-09-20T05:19:18.145Z,100.00
2023-09-20T05:21:46.389Z,100.00
2023-09-20T05:24:14.309Z,100.00
2023-09-20T05:26:42.269Z,100.00
2023-09-20T05:29:11.471Z,100.00
2023-09-20T05:31:39.547Z,100.00
2023-09-20T05:34:07.565Z,100.00
2023-09-20T05:36:35.548Z,100.00
2023-09-20T05:39:07.528Z,100.00
2023-09-20T05:41:37.877Z,100.00
2023-09-20T05:44:06.104Z,100.00
2023-09-20T05:46:33.940Z,100.00
2023-09-20T05:49:01.897Z,100.00
2023-09-20T05:51:29.781Z,100.00
2023-09-20T05:53:57.734Z,100.00
2023-09-20T05:56:27.197Z,100.00
2023-09-20T05:58:55.186Z,100.00
2023-09-20T06:01:25.627Z,100.00
2023-09-20T06:03:57.469Z,100.00
2023-09-20T06:06:26.220Z,100.00
2023-09-20T06:08:54.166Z,100.00
2023-09-20T06:11:22.032Z,100.00
2023-09-20T06:13:52.240Z,100.00
2023-09-20T06:16:20.059Z,100.00
2023-09-20T06:19:05.127Z,100.00
2023-09-20T06:21:35.771Z,100.00
2023-09-20T06:24:04.172Z,100.00
2023-09-20T06:26:33.400Z,100.00
2023-09-20T06:29:02.735Z,100.00
2023-09-20T06:31:30.721Z,100.00
2023-09-20T06:33:58.658Z,100.00
2023-09-20T06:36:26.513Z,100.00
2023-09-20T06:38:54.306Z,100.00
2023-09-20T06:41:24.875Z,100.00
2023-09-20T06:43:53.961Z,100.00
2023-09-20T06:46:22.976Z,100.00
2023-09-20T06:48:51.050Z,100.00
2023-09-20T06:51:21.099Z,100.00
2023-09-20T06:53:50.197Z,100.00
2023-09-20T06:56:18.848Z,100.00
2023-09-20T06:58:46.837Z,100.00
2023-09-20T07:01:15.169Z,99.99
2023-09-20T07:03:43.508Z,99.62
2023-09-20T07:06:12.659Z,99.39
2023-09-20T07:08:40.817Z,99.46
2023-09-20T07:11:09.452Z,97.26
2023-09-20T07:13:37.822Z,97.98
2023-09-20T07:16:08.411Z,96.73
2023-09-20T07:18:37.592Z,94.24
2023-09-20T07:21:06.100Z,91.46
2023-09-20T07:23:36.357Z,87.03
2023-09-20T07:26:05.416Z,86.72
2023-09-20T07:28:33.216Z,87.79
2023-09-20T07:31:04.557Z,86.18
2023-09-20T07:33:33.164Z,85.09
2023-09-20T07:36:02.075Z,84.36
2023-09-20T07:38:40.178Z,81.96
2023-09-20T07:41:11.115Z,83.10
2023-09-20T07:43:40.127Z,83.11
2023-09-20T07:46:09.296Z,83.02
2023-09-20T07:48:49.392Z,81.95
2023-09-20T07:51:25.402Z,82.69
2023-09-20T07:53:57.052Z,83.50
2023-09-20T07:56:26.254Z,79.54
2023-09-20T07:58:55.430Z,79.58
2023-09-20T08:01:26.204Z,78.09
2023-09-20T08:03:59.956Z,78.24
2023-09-20T08:06:30.678Z,77.17
2023-09-20T08:08:58.629Z,76.03
2023-09-20T08:11:27.284Z,77.17
2023-09-20T08:13:56.633Z,76.96
2023-09-20T08:16:34.840Z,75.52
2023-09-20T08:19:23.216Z,74.05
2023-09-20T08:21:51.768Z,70.89
2023-09-20T08:24:38.178Z,69.10
2023-09-20T08:27:24.451Z,68.30
2023-09-20T08:30:10.998Z,64.98
2023-09-20T08:32:57.621Z,62.94
2023-09-20T08:35:44.407Z,64.19
2023-09-20T08:38:30.739Z,61.62
2023-09-20T08:41:17.722Z,61.95
2023-09-20T08:44:04.377Z,62.84
2023-09-20T08:46:51.641Z,62.62
2023-09-20T08:49:38.431Z,62.10
2023-09-20T08:52:36.804Z,61.10
2023-09-20T08:55:23.553Z,61.15
2023-09-20T08:58:10.733Z,61.16
2023-09-20T09:00:40.522Z,61.97
2023-09-20T09:03:09.810Z,61.91
2023-09-20T09:05:38.646Z,62.28
2023-09-20T09:08:14.675Z,62.34
2023-09-20T09:10:43.337Z,61.63
2023-09-20T09:13:11.946Z,62.41
2023-09-20T09:15:40.521Z,62.34
2023-09-20T09:18:14.304Z,61.39
2023-09-20T09:20:43.006Z,60.52
2023-09-20T09:23:11.484Z,60.87
2023-09-20T09:25:39.583Z,61.00
2023-09-20T09:28:07.556Z,59.58
2023-09-20T09:30:36.057Z,57.06
2023-09-20T09:33:04.122Z,56.63
2023-09-20T09:35:46.701Z,56.69
2023-09-20T09:38:22.835Z,56.83
2023-09-20T09:40:58.204Z,56.78
2023-09-20T09:43:29.454Z,57.05
2023-09-20T09:46:07.705Z,56.92
2023-09-20T09:48:40.453Z,57.63
2023-09-20T09:51:09.953Z,57.58
2023-09-20T09:53:38.287Z,57.65
2023-09-20T09:56:06.867Z,57.81
2023-09-20T09:58:34.849Z,57.51
2023-09-20T10:01:07.258Z,57.48
2023-09-20T10:03:38.047Z,57.98
2023-09-20T10:06:14.611Z,58.35
2023-09-20T10:08:43.696Z,59.07
2023-09-20T10:11:13.299Z,58.77
2023-09-20T10:13:41.875Z,58.35
2023-09-20T10:16:14.613Z,58.05
2023-09-20T10:18:55.681Z,57.95
2023-09-20T10:21:26.958Z,57.92
2023-09-20T10:23:59.267Z,57.16
2023-09-20T10:26:28.213Z,57.52
2023-09-20T10:29:19.485Z,57.27
2023-09-20T10:31:48.735Z,57.70
2023-09-20T10:34:21.054Z,57.92
2023-09-20T10:36:55.270Z,57.15
2023-09-20T10:39:24.175Z,57.45
2023-09-20T10:41:53.768Z,58.29
2023-09-20T10:44:25.074Z,56.81
2023-09-20T10:46:54.446Z,57.41
2023-09-20T10:49:48.960Z,56.95
2023-09-20T10:52:32.363Z,56.07
2023-09-20T10:55:24.275Z,57.05
2023-09-20T10:57:53.085Z,57.63
2023-09-20T11:04:39.926Z,54.85
2023-09-20T11:07:09.491Z,54.25
2023-09-20T11:09:41.279Z,54.59
2023-09-20T11:12:09.517Z,55.02
2023-09-20T11:14:42.082Z,55.24
2023-09-20T11:17:15.371Z,55.59
2023-09-20T11:19:44.821Z,55.83
2023-09-20T11:22:16.212Z,55.21
2023-09-20T11:24:44.408Z,53.51
2023-09-20T11:27:14.666Z,53.91
2023-09-20T11:29:45.836Z,53.92
2023-09-20T11:32:16.632Z,53.84
2023-09-20T11:34:46.349Z,54.02
2023-09-20T11:37:19.867Z,54.10
2023-09-20T11:39:49.644Z,53.69
2023-09-20T11:42:47.014Z,52.23
2023-09-20T11:45:48.184Z,52.53
2023-09-20T11:48:10.081Z,51.94
2023-09-20T11:50:44.195Z,51.63
2023-09-20T11:53:16.471Z,51.01
2023-09-20T11:55:45.307Z,51.41
2023-09-20T11:58:20.806Z,51.48
2023-09-20T12:00:49.107Z,52.02
2023-09-20T12:03:17.194Z,51.96
2023-09-20T12:05:45.758Z,52.79
2023-09-20T12:08:13.762Z,52.87
2023-09-20T12:10:41.813Z,52.92
2023-09-20T12:13:10.635Z,51.63
2023-09-20T12:15:44.496Z,52.54
2023-09-20T12:18:15.772Z,52.14
2023-09-20T12:20:43.924Z,52.57
2023-09-20T12:23:13.476Z,52.63
2023-09-20T12:25:42.581Z,52.55
2023-09-20T12:28:12.185Z,51.79
2023-09-20T12:30:41.255Z,52.47
2023-09-20T12:33:10.061Z,52.17
2023-09-20T12:35:42.229Z,52.58
2023-09-20T12:38:10.403Z,52.79
2023-09-20T12:40:38.696Z,52.99
2023-09-20T12:43:07.070Z,53.47
2023-09-20T12:45:35.232Z,52.70
2023-09-20T12:48:03.843Z,52.58
2023-09-20T12:50:35.386Z,53.09
2023-09-20T12:53:11.164Z,53.21
2023-09-20T12:55:40.526Z,53.41
2023-09-20T12:58:11.338Z,53.31
2023-09-20T13:00:47.254Z,52.68
2023-09-20T13:03:16.624Z,52.27
2023-09-20T13:05:47.544Z,52.50
2023-09-20T13:08:20.669Z,52.71
2023-09-20T13:10:52.423Z,52.29
2023-09-20T13:13:20.437Z,53.13
2023-09-20T13:15:48.650Z,53.41
2023-09-20T13:18:17.801Z,53.68
2023-09-20T13:20:46.051Z,54.31
2023-09-20T13:23:15.495Z,54.28
2023-09-20T13:25:44.330Z,54.34
2023-09-20T13:28:14.083Z,54.39
2023-09-20T13:30:42.777Z,54.65
2023-09-20T13:33:13.504Z,55.18
2023-09-20T13:35:43.367Z,55.06
2023-09-20T13:38:14.640Z,54.69
2023-09-20T13:40:45.644Z,53.61
2023-09-20T13:43:15.574Z,53.72
2023-09-20T13:45:44.721Z,54.04
2023-09-20T13:48:16.346Z,53.72
2023-09-20T13:50:45.232Z,53.88
2023-09-20T13:53:14.479Z,53.72
2023-09-20T13:55:43.105Z,54.00
2023-09-20T13:58:13.090Z,54.88
2023-09-20T14:00:43.153Z,54.84
2023-09-20T14:03:11.730Z,55.65
2023-09-20T14:05:40.035Z,55.94
2023-09-20T14:08:09.592Z,55.88
2023-09-20T14:11:09.959Z,56.40
2023-09-20T14:13:39.395Z,56.27
2023-09-20T14:16:10.925Z,56.91
2023-09-20T14:18:41.628Z,57.33
2023-09-20T14:21:11.026Z,57.43
2023-09-20T14:23:39.330Z,57.71
2023-09-20T14:26:12.118Z,58.13
2023-09-20T14:28:43.896Z,58.49
2023-09-20T14:31:18.392Z,58.43
2023-09-20T14:33:49.654Z,58.42
2023-09-20T14:36:19.524Z,58.65
2023-09-20T14:38:48.027Z,59.00
2023-09-20T14:41:17.053Z,59.47
2023-09-20T14:43:45.008Z,59.38
2023-09-20T14:46:13.060Z,60.03
2023-09-20T14:48:41.336Z,60.47
2023-09-20T14:51:16.211Z,60.44
2023-09-20T14:53:46.080Z,60.23
2023-09-20T14:56:15.822Z,60.32
2023-09-20T14:58:46.136Z,60.31
2023-09-20T15:01:18.384Z,60.30
2023-09-20T15:03:50.245Z,60.49
2023-09-20T15:06:18.954Z,60.89
2023-09-20T15:08:49.785Z,61.09
2023-09-20T15:11:19.456Z,61.21
2023-09-20T15:13:54.315Z,61.35
2023-09-20T15:16:22.471Z,61.61
2023-09-20T15:18:50.550Z,62.26
2023-09-20T15:21:18.703Z,62.82
2023-09-20T15:24:15.565Z,63.17
2023-09-20T15:26:43.549Z,63.16
2023-09-20T15:29:18.073Z,63.06
2023-09-20T15:31:48.126Z,63.08
2023-09-20T15:34:17.358Z,63.31
2023-09-20T15:36:45.325Z,63.80
2023-09-20T15:39:13.973Z,63.49
2023-09-20T15:41:43.080Z,64.08
2023-09-20T15:44:11.027Z,63.83
2023-09-20T15:46:39.253Z,63.49
2023-09-20T15:49:08.190Z,63.59
2023-09-20T15:51:36.400Z,64.66
2023-09-20T15:54:04.712Z,64.86
2023-09-20T15:56:34.824Z,65.55
2023-09-20T15:59:04.874Z,66.16
2023-09-20T16:01:32.960Z,66.99
2023-09-20T16:04:04.228Z,67.97
2023-09-20T16:06:32.563Z,69.33
2023-09-20T16:09:00.739Z,70.16
2023-09-20T16:11:32.732Z,71.04
2023-09-20T16:14:02.721Z,72.16
2023-09-20T16:16:31.172Z,72.68
2023-09-20T16:19:00.824Z,73.40
2023-09-20T16:21:33.868Z,73.93
2023-09-20T16:24:03.085Z,74.60
2023-09-20T16:26:34.275Z,75.27
2023-09-20T16:29:02.429Z,75.92
2023-09-20T16:31:35.415Z,76.43
2023-09-20T16:34:05.614Z,77.01
2023-09-20T16:36:35.634Z,77.60
2023-09-20T16:39:04.711Z,78.21
2023-09-20T16:41:33.922Z,78.62
2023-09-20T16:44:02.150Z,79.03
2023-09-20T16:46:30.299Z,79.64
2023-09-20T16:48:58.281Z,79.98
2023-09-20T16:51:26.409Z,80.19
2023-09-20T16:53:55.549Z,80.49
2023-09-20T16:56:23.792Z,80.74
2023-09-20T16:58:52.925Z,80.91
2023-09-20T17:01:21.813Z,81.14
2023-09-20T17:03:50.663Z,81.41
2023-09-20T17:06:19.978Z,81.67
2023-09-20T17:08:51.682Z,82.28
2023-09-20T17:11:19.934Z,82.72
2023-09-20T17:13:48.184Z,83.08
2023-09-20T17:16:16.232Z,83.47
2023-09-20T17:18:45.627Z,83.88
2023-09-20T17:21:14.107Z,84.00
2023-09-20T17:23:47.619Z,84.55
2023-09-20T17:26:15.592Z,85.06
2023-09-20T17:28:44.303Z,85.42
2023-09-20T17:31:14.441Z,85.66
2023-09-20T17:33:46.420Z,85.78
2023-09-20T17:36:17.117Z,86.04
2023-09-20T17:38:46.145Z,86.29
2023-09-20T17:41:21.276Z,86.58
2023-09-20T17:43:54.763Z,86.94
2023-09-20T17:46:23.856Z,87.16
2023-09-20T17:48:55.151Z,87.54
2023-09-20T17:51:25.879Z,87.95
2023-09-20T17:53:58.775Z,88.24
2023-09-20T17:56:31.549Z,88.16
2023-09-20T17:58:59.946Z,87.98
2023-09-20T18:01:29.952Z,87.80
2023-09-20T18:04:01.820Z,87.83
2023-09-20T18:06:31.183Z,87.47
2023-09-20T18:08:59.676Z,88.58
2023-09-20T18:11:32.690Z,89.08
2023-09-20T18:14:00.769Z,89.31
2023-09-20T18:16:29.855Z,89.05
2023-09-20T18:18:58.675Z,89.12
2023-09-20T18:21:26.894Z,89.55
2023-09-20T18:23:56.993Z,89.82
2023-09-20T18:26:27.526Z,88.84
2023-09-20T18:28:55.657Z,90.86
2023-09-20T18:31:26.040Z,90.60
2023-09-20T18:33:54.153Z,90.86
2023-09-20T18:36:28.392Z,90.80
2023-09-20T18:38:58.162Z,91.00
2023-09-20T18:41:27.431Z,91.07
2023-09-20T18:43:56.378Z,91.22
2023-09-20T18:46:27.315Z,91.32
2023-09-20T18:48:55.468Z,91.43
2023-09-20T18:51:25.806Z,91.77
2023-09-20T18:53:54.756Z,92.72
2023-09-20T18:56:29.613Z,92.74
2023-09-20T18:59:00.307Z,92.74
2023-09-20T19:04:38.516Z,94.35
2023-09-20T19:07:07.509Z,93.80
2023-09-20T19:09:36.271Z,93.80
2023-09-20T19:12:07.482Z,93.86
2023-09-20T19:14:35.446Z,94.17
2023-09-20T19:17:03.352Z,94.85
2023-09-20T19:19:31.326Z,95.93
2023-09-20T19:21:59.233Z,96.17
2023-09-20T19:24:31.739Z,95.55
2023-09-20T19:27:00.341Z,95.51
2023-09-20T19:29:28.776Z,95.26
2023-09-20T19:31:57.888Z,95.37
2023-09-20T19:34:25.954Z,95.43
2023-09-20T19:36:53.765Z,95.47
2023-09-20T19:39:25.193Z,95.73
2023-09-20T19:41:54.335Z,96.19
2023-09-20T19:44:23.151Z,96.41
2023-09-20T19:46:51.677Z,96.67
2023-09-20T19:49:19.579Z,96.67
2023-09-20T19:51:48.157Z,96.80
2023-09-20T19:54:21.043Z,97.02
2023-09-20T19:56:49.339Z,97.15
2023-09-20T19:59:17.421Z,97.65
2023-09-20T20:01:46.681Z,97.98
2023-09-20T20:04:15.051Z,98.31
2023-09-20T20:06:43.070Z,98.54
2023-09-20T20:09:13.139Z,98.23
2023-09-20T20:11:41.121Z,98.14
2023-09-20T20:14:14.098Z,98.62
2023-09-20T20:16:42.135Z,98.67
2023-09-20T20:19:13.677Z,98.69
2023-09-20T20:21:42.029Z,98.77
2023-09-20T20:24:10.235Z,98.75
2023-09-20T20:26:40.934Z,99.13
2023-09-20T20:29:12.102Z,99.21
2023-09-20T20:31:41.989Z,99.34
2023-09-20T20:34:10.005Z,99.35
2023-09-20T20:36:40.212Z,99.57
2023-09-20T20:39:14.932Z,99.95
2023-09-20T20:41:48.936Z,100.00
2023-09-20T20:44:18.838Z,100.00
2023-09-20T20:47:13.653Z,99.99
2023-09-20T20:49:42.613Z,100.00
2023-09-20T20:52:11.355Z,99.97
2023-09-20T20:54:40.386Z,100.00
2023-09-20T20:57:10.144Z,100.00
2023-09-20T20:59:43.255Z,100.00
2023-09-20T21:02:14.470Z,100.00
2023-09-20T21:04:43.454Z,100.00
2023-09-20T21:07:11.865Z,100.00
2023-09-20T21:09:41.840Z,100.00
2023-09-20T21:12:11.371Z,100.00
2023-09-20T21:14:40.594Z,100.00
2023-09-20T21:17:13.069Z,100.00
2023-09-20T21:19:41.509Z,100.00
2023-09-20T21:22:10.760Z,100.00
2023-09-20T21:24:40.737Z,100.00
2023-09-20T21:27:10.534Z,100.00
2023-09-20T21:29:40.469Z,100.00
2023-09-20T21:32:09.312Z,100.00
2023-09-20T21:34:37.201Z,100.00
2023-09-20T21:37:05.119Z,100.00
2023-09-20T21:39:33.119Z,100.00
2023-09-20T21:42:04.283Z,100.00
2023-09-20T21:44:33.291Z,100.00
2023-09-20T21:47:01.206Z,100.00
2023-09-20T21:49:30.252Z,100.00
2023-09-20T21:52:00.156Z,100.00
2023-09-20T21:54:32.490Z,100.00
2023-09-20T21:57:01.021Z,100.00
2023-09-20T21:59:31.384Z,100.00
2023-09-20T22:02:00.539Z,100.00
2023-09-20T22:04:32.823Z,100.00
2023-09-20T22:07:02.488Z,100.00
2023-09-20T22:09:31.042Z,100.00
2023-09-20T22:11:59.263Z,100.00
2023-09-20T22:14:27.176Z,100.00
2023-09-20T22:16:56.169Z,100.00
2023-09-20T22:22:14.236Z,100.00
2023-09-20T22:24:42.124Z,100.00
2023-09-20T22:27:15.905Z,100.00
2023-09-20T22:29:43.889Z,100.00
2023-09-20T22:32:11.863Z,100.00
2023-09-20T22:34:40.863Z,100.00
2023-09-20T22:37:09.736Z,100.00
2023-09-20T22:39:38.326Z,100.00
2023-09-20T22:42:06.661Z,100.00
2023-09-20T22:44:35.635Z,100.00
2023-09-20T22:47:03.876Z,100.00
2023-09-20T22:49:35.171Z,100.00
2023-09-20T22:52:04.425Z,100.00
2023-09-20T22:54:32.251Z,100.00
2023-09-20T22:57:00.027Z,100.00
2023-09-20T22:59:29.525Z,100.00
2023-09-20T23:01:57.410Z,100.00
2023-09-20T23:04:25.386Z,100.00
2023-09-20T23:06:53.339Z,100.00
2023-09-20T23:09:23.204Z,100.00
2023-09-20T23:11:53.215Z,100.00
2023-09-20T23:14:21.274Z,100.00
2023-09-20T23:16:49.804Z,100.00
2023-09-20T23:19:17.690Z,100.00
2023-09-20T23:21:45.560Z,100.00
2023-09-20T23:24:15.257Z,100.00
2023-09-20T23:26:44.192Z,100.00
2023-09-20T23:29:12.107Z,100.00
2023-09-20T23:31:48.224Z,100.00
2023-09-20T23:34:16.941Z,100.00
2023-09-20T23:36:48.424Z,100.00
2023-09-20T23:39:21.901Z,100.00
2023-09-20T23:41:50.838Z,100.00
2023-09-20T23:44:18.665Z,100.00
2023-09-20T23:46:50.464Z,100.00
2023-09-20T23:49:18.361Z,100.00
2023-09-20T23:51:47.071Z,100.00
2023-09-20T23:54:15.094Z,100.00
2023-09-20T23:56:43.210Z,100.00
2023-09-20T23:59:11.319Z,100.00
